Laguna de Pozuelos, Argentina
Current Conditions -  °F | °C
As of 10:00 AM on Thursday 30 Oct 2014 (Local Time) from SLTJ Reporting Station
Few Clouds Few Clouds  
Wind Chill: 26°   Ceiling: Unl
Heat Index: 27°   Visibility: 6mi
Dew Point: 17°   Wind: 9mph
Humidity: 57%   Direction: 160°SSE
Pressure: 29.94"   Gusts: NA
Location:  22.37°S, 66.02°W
Report Text: SLTJ 301300Z 16008KT 9999 FEW033 26/17 Q1014
Loading
Personal Weather Stations






























Interactive Weather Map
Tropical Storm Tracking
New forecast layout! Learn more

10-Day Weather Forecast

Advertisements
Track Severe Weather on mobile